Time;durP1;ratioP1;P1;durP2;ratioP2;P2;SDS_P1;SDS_P2;PMS_P1;PMS_P2;Temp;Humidity;BMP_temperature;BMP_pressure;BME280_temperature;BME280_humidity;BME280_pressure;Samples;Min_cycle;Max_cycle;Signal;HPM_P1;HPM_P2
2023/11/12 00:01:10;;;;;;;3.00;2.37;;;;;;;3.46;91.90;96993.66;6200776;28;20634;-54
2023/11/12 00:04:12;;;;;;;3.23;1.90;;;;;;;3.45;92.51;96994.66;6199826;28;20192;-53
2023/11/12 00:07:15;;;;;;;4.40;2.07;;;;;;;3.49;92.08;96987.97;6217289;28;20661;-54
2023/11/12 00:10:19;;;;;;;2.10;1.90;;;;;;;3.46;92.80;96993.66;6216299;28;20204;-54
2023/11/12 00:13:22;;;;;;;2.57;1.93;;;;;;;3.35;94.15;96988.06;6216324;28;20203;-52
2023/11/12 00:16:24;;;;;;;3.53;2.20;;;;;;;3.05;96.37;96958.06;6218524;28;20732;-53
2023/11/12 00:19:27;;;;;;;2.03;1.90;;;;;;;3.21;96.15;96983.09;6216948;28;20197;-54
2023/11/12 00:22:29;;;;;;;2.47;2.27;;;;;;;3.27;95.60;96977.78;6213632;28;20582;-53
2023/11/12 00:25:31;;;;;;;2.50;2.10;;;;;;;3.41;94.42;96991.69;6197410;28;20200;-52
2023/11/12 00:28:33;;;;;;;3.43;1.90;;;;;;;3.57;93.54;97001.69;6216828;28;20184;-53
2023/11/12 00:31:35;;;;;;;3.13;1.67;;;;;;;3.50;94.02;96984.34;6208319;28;20224;-53
2023/11/12 00:34:38;;;;;;;2.37;1.87;;;;;;;3.76;91.24;96993.84;6191008;28;20201;-53
2023/11/12 00:37:40;;;;;;;1.80;1.50;;;;;;;3.76;93.54;97002.56;6194631;28;20225;-53
2023/11/12 00:40:43;;;;;;;3.57;2.27;;;;;;;3.72;92.00;96985.56;6184045;28;20219;-53
2023/11/12 00:43:45;;;;;;;2.83;1.73;;;;;;;3.70;91.46;96987.63;6193124;28;20201;-50
2023/11/12 00:46:51;;;;;;;2.00;1.70;;;;;;;3.67;93.12;96990.66;6198264;28;20202;-53
2023/11/12 00:49:53;;;;;;;4.20;2.00;;;;;;;3.99;90.05;96993.22;6171213;28;20718;-53
2023/11/12 00:52:55;;;;;;;3.23;1.90;;;;;;;3.88;91.35;96992.09;6187246;28;20672;-51
2023/11/12 00:55:59;;;;;;;2.07;1.80;;;;;;;3.72;92.18;97000.56;6171068;28;20204;-53
2023/11/12 00:59:04;;;;;;;2.63;1.67;;;;;;;3.58;93.31;97002.47;6185490;28;20603;-53
2023/11/12 01:02:09;;;;;;;1.90;1.67;;;;;;;3.41;94.65;96996.94;6164893;28;20201;-53
2023/11/12 01:05:12;;;;;;;2.03;1.43;;;;;;;3.68;94.05;96994.91;6179092;28;21018;-53
2023/11/12 01:08:14;;;;;;;2.37;1.73;;;;;;;3.57;93.13;96993.78;6200262;28;20193;-54
2023/11/12 01:11:16;;;;;;;2.47;1.73;;;;;;;3.58;92.60;96998.03;6197731;28;20189;-54
2023/11/12 01:14:19;;;;;;;3.50;1.60;;;;;;;3.60;91.24;96987.28;6200024;28;20560;-51
2023/11/12 01:17:21;;;;;;;2.07;1.70;;;;;;;3.64;92.40;97001.63;6192844;28;20205;-54
2023/11/12 01:20:24;;;;;;;2.63;1.90;;;;;;;3.69;92.55;96993.88;6190479;28;20205;-53
2023/11/12 01:23:27;;;;;;;2.50;1.80;;;;;;;3.61;93.38;96991.53;6193098;28;20203;-53
2023/11/12 01:26:29;;;;;;;3.70;2.20;;;;;;;3.49;93.37;96996.66;6189020;28;20256;-53
2023/11/12 01:29:32;;;;;;;2.10;1.90;;;;;;;3.66;92.31;96998.78;6177710;28;20232;-53
2023/11/12 01:32:34;;;;;;;3.83;1.77;;;;;;;3.52;93.89;97008.63;6189203;28;20232;-52
2023/11/12 01:35:36;;;;;;;2.70;2.50;;;;;;;3.44;94.83;97006.22;6192475;28;20185;-53
2023/11/12 01:38:39;;;;;;;4.00;2.03;;;;;;;3.45;95.12;97007.84;6195384;28;20201;-50
2023/11/12 01:41:41;;;;;;;3.73;2.27;;;;;;;3.31;94.78;96971.09;6175545;28;20378;-52
2023/11/12 01:44:43;;;;;;;3.70;2.17;;;;;;;3.44;95.67;96998.31;6192789;28;20683;-52
2023/11/12 01:47:47;;;;;;;2.63;1.90;;;;;;;3.32;96.40;97004.28;6191323;28;20776;-53
2023/11/12 01:50:50;;;;;;;2.23;1.93;;;;;;;3.20;97.06;96998.09;6190663;28;20979;-52
2023/11/12 01:53:53;;;;;;;2.30;1.90;;;;;;;3.09;98.39;96991.66;6172129;28;20696;-51
2023/11/12 01:56:56;;;;;;;2.17;1.90;;;;;;;2.96;98.66;96993.56;6190461;28;20220;-52
2023/11/12 01:59:58;;;;;;;3.87;2.00;;;;;;;2.83;99.52;96995.22;6191153;28;20597;-51
2023/11/12 02:03:04;;;;;;;3.63;2.10;;;;;;;2.78;100.00;96988.97;6192886;28;20201;-53
2023/11/12 02:06:06;;;;;;;3.53;2.20;;;;;;;2.73;100.00;97002.75;6180617;28;20240;-52
2023/11/12 02:09:09;;;;;;;3.50;2.40;;;;;;;2.80;100.00;97007.97;6190762;28;20190;-50
2023/11/12 02:12:16;;;;;;;4.90;3.33;;;;;;;2.78;100.00;96981.91;6188180;28;20212;-49
2023/11/12 02:15:19;;;;;;;2.93;2.60;;;;;;;3.18;100.00;96989.59;6175873;28;20575;-50
2023/11/12 02:18:22;;;;;;;4.40;3.13;;;;;;;3.42;100.00;96992.47;6180892;28;20221;-53
2023/11/12 02:21:26;;;;;;;3.67;3.13;;;;;;;3.41;99.98;96994.31;6195426;28;20281;-53
2023/11/12 02:24:28;;;;;;;4.13;3.17;;;;;;;3.34;100.00;97004.88;6195028;28;20676;-54
2023/11/12 02:27:31;;;;;;;4.53;2.60;;;;;;;3.27;100.00;96998.84;6178369;28;20839;-50
2023/11/12 02:30:33;;;;;;;4.43;2.77;;;;;;;3.23;100.00;96984.50;6177935;28;20221;-54
2023/11/12 02:33:38;;;;;;;4.03;3.30;;;;;;;3.16;100.00;96961.88;6182609;28;20381;-51
2023/11/12 02:36:42;;;;;;;3.57;3.17;;;;;;;3.63;100.00;96997.38;6173368;28;20311;-53
2023/11/12 02:39:44;;;;;;;4.33;3.90;;;;;;;3.75;100.00;96998.31;6176116;28;20638;-52
2023/11/12 02:42:48;;;;;;;4.90;3.50;;;;;;;3.87;100.00;97001.03;6190342;28;20200;-52
2023/11/12 02:45:50;;;;;;;3.90;3.50;;;;;;;4.07;96.51;96998.22;6189317;28;20202;-54
2023/11/12 02:49:07;;;;;;;5.70;3.47;;;;;;;4.34;95.27;96999.59;6191654;28;20202;-51
2023/11/12 02:52:09;;;;;;;4.37;3.30;;;;;;;4.44;94.92;96982.47;6173036;28;20288;-53
2023/11/12 02:55:11;;;;;;;4.87;3.70;;;;;;;4.56;92.58;96994.69;6195186;28;20209;-53
2023/11/12 02:58:16;;;;;;;5.83;4.20;;;;;;;4.68;92.27;96983.38;6173796;28;20218;-53
2023/11/12 03:01:19;;;;;;;4.30;3.90;;;;;;;4.76;93.81;96991.81;6189916;28;20200;-54
2023/11/12 03:04:22;;;;;;;4.13;3.73;;;;;;;4.83;90.14;96984.63;6172938;28;20202;-53
2023/11/12 03:07:24;;;;;;;4.07;3.30;;;;;;;4.79;93.65;97001.94;6196104;28;20223;-53
2023/11/12 03:10:28;;;;;;;4.50;3.60;;;;;;;4.71;93.41;96999.59;6158571;28;20206;-51
2023/11/12 03:13:30;;;;;;;4.20;3.80;;;;;;;4.69;93.56;96996.38;6194755;28;20242;-52
2023/11/12 03:16:32;;;;;;;4.85;3.50;;;;;;;4.75;93.95;97003.41;6200128;28;20202;-52
2023/11/12 03:19:34;;;;;;;5.10;3.63;;;;;;;4.80;93.55;97002.75;6186132;28;20442;-53
2023/11/12 03:22:37;;;;;;;3.90;3.10;;;;;;;4.76;95.69;97010.28;6204672;28;20202;-52
2023/11/12 03:25:39;;;;;;;4.30;3.50;;;;;;;4.68;97.57;97013.25;6208656;28;20201;-52
2023/11/12 03:28:41;;;;;;;3.40;3.10;;;;;;;4.61;97.12;97023.03;6193006;28;20197;-54
2023/11/12 03:31:48;;;;;;;6.03;3.13;;;;;;;4.57;97.56;97006.84;6191448;28;20248;-53
2023/11/12 03:34:50;;;;;;;4.13;2.90;;;;;;;4.57;96.89;97003.41;6194509;28;20309;-53
2023/11/12 03:37:52;;;;;;;4.53;2.80;;;;;;;4.55;98.07;97011.53;6177156;28;20220;-53
2023/11/12 03:40:56;;;;;;;4.53;3.33;;;;;;;4.65;95.12;97000.47;6194408;28;20198;-52
2023/11/12 03:43:58;;;;;;;4.30;2.70;;;;;;;4.59;95.89;97007.44;6195124;28;20202;-53
2023/11/12 03:47:01;;;;;;;2.93;2.63;;;;;;;4.43;99.12;97000.09;6177237;28;20565;-54
2023/11/12 03:50:04;;;;;;;4.53;2.73;;;;;;;4.36;99.99;97012.56;6194367;28;20210;-53
2023/11/12 03:53:06;;;;;;;2.60;2.40;;;;;;;4.32;99.63;97014.81;6192838;28;20191;-52
2023/11/12 03:56:09;;;;;;;2.77;2.20;;;;;;;4.26;100.00;97012.25;6194300;28;20735;-54
2023/11/12 03:59:11;;;;;;;3.87;2.40;;;;;;;4.34;99.21;97002.22;6194564;28;20377;-50
2023/11/12 04:02:14;;;;;;;3.13;2.47;;;;;;;4.40;96.93;97011.91;6187446;28;20207;-51
2023/11/12 04:05:16;;;;;;;5.37;2.60;;;;;;;4.34;98.76;97002.22;6192633;28;20277;-51
2023/11/12 04:08:18;;;;;;;2.47;2.13;;;;;;;4.32;99.82;97014.00;6194407;28;20212;-54
2023/11/12 04:11:21;;;;;;;4.33;2.57;;;;;;;4.28;100.00;97018.09;6177755;28;20242;-50
2023/11/12 04:14:23;;;;;;;3.83;2.10;;;;;;;4.21;98.95;97014.72;6192873;28;20198;-53
2023/11/12 04:17:25;;;;;;;3.37;2.30;;;;;;;3.93;100.00;96980.94;6171539;28;20230;-52
2023/11/12 04:20:29;;;;;;;2.97;2.40;;;;;;;4.17;100.00;97013.56;6193622;28;20491;-52
2023/11/12 04:23:31;;;;;;;2.63;2.40;;;;;;;4.00;100.00;97014.13;6193052;28;20330;-51
2023/11/12 04:26:33;;;;;;;3.60;1.90;;;;;;;3.77;100.00;97003.34;6192743;28;20205;-53
2023/11/12 04:29:38;;;;;;;5.33;2.33;;;;;;;3.68;100.00;96994.91;6174494;28;20238;-52
2023/11/12 04:32:41;;;;;;;3.43;2.17;;;;;;;4.00;98.83;97018.59;6186194;28;21189;-53
2023/11/12 04:35:43;;;;;;;3.83;2.30;;;;;;;4.05;100.00;97029.28;6193601;28;20212;-53
2023/11/12 04:38:46;;;;;;;2.77;1.87;;;;;;;3.99;100.00;97020.41;6176308;28;20382;-53
2023/11/12 04:41:48;;;;;;;2.47;2.07;;;;;;;3.86;100.00;96988.91;6190969;28;20193;-53
2023/11/12 04:44:50;;;;;;;4.10;2.03;;;;;;;3.98;100.00;97029.31;6192707;28;20222;-50
2023/11/12 04:47:52;;;;;;;1.83;1.63;;;;;;;4.04;98.57;97023.22;6192758;28;20199;-51
2023/11/12 04:50:55;;;;;;;2.80;1.93;;;;;;;4.20;98.30;97032.38;6194870;28;20633;-52
2023/11/12 04:53:57;;;;;;;3.03;2.00;;;;;;;4.30;95.86;97037.97;6189594;28;20638;-51
2023/11/12 04:56:59;;;;;;;2.57;2.00;;;;;;;4.53;93.33;97044.41;6191959;28;20204;-51
2023/11/12 05:00:02;;;;;;;1.83;1.40;;;;;;;4.36;95.70;97045.00;6192848;28;20338;-53
2023/11/12 05:03:07;;;;;;;2.10;1.70;;;;;;;4.26;94.92;97038.63;6190175;28;20201;-51
2023/11/12 05:06:09;;;;;;;3.30;2.10;;;;;;;4.22;96.36;97037.44;6194851;28;20686;-52
2023/11/12 05:09:11;;;;;;;3.13;1.67;;;;;;;4.13;96.62;97029.78;6193105;28;20838;-51
2023/11/12 05:12:15;;;;;;;2.80;1.60;;;;;;;3.93;98.20;97025.72;6192317;28;20217;-52
2023/11/12 05:15:17;;;;;;;2.47;1.70;;;;;;;3.96;97.67;97043.75;6192305;28;20669;-52
2023/11/12 05:18:19;;;;;;;2.50;1.40;;;;;;;3.91;98.16;97047.03;6191316;28;20212;-50
2023/11/12 05:21:21;;;;;;;4.33;1.63;;;;;;;3.81;99.45;97049.34;6198553;28;21042;-53
2023/11/12 05:24:23;;;;;;;3.47;1.50;;;;;;;3.70;100.00;97065.84;6199542;28;20261;-53
2023/11/12 05:27:25;;;;;;;2.80;1.67;;;;;;;3.66;100.00;97065.44;6193089;28;20621;-53
2023/11/12 05:30:27;;;;;;;2.63;1.80;;;;;;;3.56;100.00;97068.53;6193462;28;20237;-53
2023/11/12 05:33:29;;;;;;;3.03;1.77;;;;;;;3.48;100.00;97067.97;6192703;28;20666;-53
2023/11/12 05:36:31;;;;;;;2.87;1.57;;;;;;;3.44;100.00;97074.69;6193082;28;20665;-54
2023/11/12 05:39:34;;;;;;;1.80;1.60;;;;;;;3.39;100.00;97070.03;6191417;28;20604;-53
2023/11/12 05:42:36;;;;;;;2.20;1.80;;;;;;;3.34;100.00;97075.13;6192385;28;20540;-52
2023/11/12 05:45:38;;;;;;;1.57;1.23;;;;;;;3.31;100.00;97078.22;6191799;28;20718;-52
2023/11/12 05:48:41;;;;;;;2.93;1.70;;;;;;;3.22;100.00;97077.63;6193081;28;20635;-53
2023/11/12 05:51:43;;;;;;;2.30;1.77;;;;;;;3.09;100.00;97075.06;6199233;28;20198;-53
2023/11/12 05:54:45;;;;;;;3.43;1.80;;;;;;;2.99;100.00;97074.69;6195623;28;20205;-52
2023/11/12 05:57:47;;;;;;;2.90;2.13;;;;;;;2.92;100.00;97073.91;6197698;28;20212;-51
2023/11/12 06:00:54;;;;;;;2.70;1.73;;;;;;;2.86;100.00;97078.19;6196747;28;20202;-53
2023/11/12 06:03:58;;;;;;;3.23;1.73;;;;;;;2.69;100.00;97077.81;6178925;28;20581;-53
2023/11/12 06:07:01;;;;;;;2.20;1.50;;;;;;;2.54;100.00;97083.31;6179001;28;20757;-50
2023/11/12 06:10:03;;;;;;;2.97;2.10;;;;;;;2.45;100.00;97081.09;6195887;28;20194;-50
2023/11/12 06:13:05;;;;;;;2.17;1.60;;;;;;;2.37;100.00;97084.78;6195102;28;20230;-51
2023/11/12 06:16:07;;;;;;;3.47;2.10;;;;;;;2.32;100.00;97085.38;6196088;28;20201;-50
2023/11/12 06:19:09;;;;;;;3.33;1.80;;;;;;;2.28;100.00;97086.00;6194657;28;20228;-53
2023/11/12 06:22:12;;;;;;;3.70;2.00;;;;;;;2.23;100.00;97083.16;6196339;28;20189;-52
2023/11/12 06:25:15;;;;;;;3.63;1.90;;;;;;;2.15;100.00;97083.38;6179016;28;20197;-51
2023/11/12 06:28:17;;;;;;;3.23;2.33;;;;;;;2.00;100.00;97096.69;6196233;28;20201;-52
2023/11/12 06:31:19;;;;;;;2.10;1.90;;;;;;;1.89;100.00;97098.13;6194859;28;20614;-51
2023/11/12 06:34:21;;;;;;;3.23;1.83;;;;;;;1.86;100.00;97093.25;6178236;28;20204;-50
2023/11/12 06:37:24;;;;;;;3.80;2.20;;;;;;;1.77;100.00;97095.28;6195216;28;20722;-50
2023/11/12 06:40:26;;;;;;;2.13;1.90;;;;;;;1.67;100.00;97089.59;6191997;28;20276;-53
2023/11/12 06:43:28;;;;;;;1.87;1.77;;;;;;;1.66;100.00;97101.09;6194087;28;20277;-50
2023/11/12 06:46:30;;;;;;;2.10;1.70;;;;;;;1.62;100.00;97104.31;6171452;28;20202;-52
2023/11/12 06:49:32;;;;;;;3.23;1.90;;;;;;;1.62;100.00;97106.94;6194060;28;20718;-51
2023/11/12 06:52:34;;;;;;;2.60;2.13;;;;;;;1.59;100.00;97104.75;6193476;28;20200;-52
2023/11/12 06:55:36;;;;;;;2.50;2.10;;;;;;;1.55;100.00;97093.81;6194235;28;20619;-52
2023/11/12 06:58:40;;;;;;;2.77;1.97;;;;;;;1.58;100.00;97098.69;6193633;28;20198;-52
2023/11/12 07:01:42;;;;;;;3.23;1.83;;;;;;;1.54;100.00;97108.75;6192923;28;20210;-52
2023/11/12 07:04:47;;;;;;;3.73;2.13;;;;;;;1.53;100.00;97106.34;6194160;28;20285;-49
2023/11/12 07:07:51;;;;;;;4.13;1.83;;;;;;;1.58;100.00;97103.94;6191697;28;20218;-51
2023/11/12 07:10:53;;;;;;;2.77;2.10;;;;;;;1.60;100.00;97109.78;6192842;28;20583;-48
2023/11/12 07:13:56;;;;;;;2.03;1.80;;;;;;;1.46;100.00;97089.75;6174256;28;20683;-49
2023/11/12 07:16:58;;;;;;;3.40;1.80;;;;;;;1.57;100.00;97104.91;6190035;28;20199;-48
2023/11/12 07:20:01;;;;;;;3.00;2.27;;;;;;;1.47;100.00;97078.25;6190971;28;20408;-49
2023/11/12 07:23:04;;;;;;;2.60;2.17;;;;;;;1.60;100.00;97107.16;6193438;28;20204;-51
2023/11/12 07:26:06;;;;;;;2.20;2.00;;;;;;;1.62;100.00;97099.06;6190796;28;20196;-50
2023/11/12 07:29:13;;;;;;;3.23;2.10;;;;;;;1.68;100.00;97108.81;6193496;28;20183;-51
2023/11/12 07:32:15;;;;;;;2.47;1.80;;;;;;;1.53;100.00;97080.09;6193108;28;20233;-50
2023/11/12 07:35:18;;;;;;;3.07;1.80;;;;;;;1.73;100.00;97106.38;6191565;28;20195;-49
2023/11/12 07:38:20;;;;;;;4.70;2.10;;;;;;;1.75;100.00;97110.41;6193067;28;20200;-52
2023/11/12 07:41:23;;;;;;;2.17;1.97;;;;;;;1.81;100.00;97093.84;6193673;28;20808;-51
2023/11/12 07:44:25;;;;;;;4.03;2.13;;;;;;;1.87;100.00;97102.75;6191814;28;21005;-48
2023/11/12 07:47:27;;;;;;;3.40;2.00;;;;;;;1.96;100.00;97103.34;6191513;28;20679;-48
2023/11/12 07:50:30;;;;;;;2.63;1.93;;;;;;;2.28;100.00;97105.19;6192820;28;20212;-46
2023/11/12 07:53:32;;;;;;;2.83;1.80;;;;;;;2.61;100.00;97106.16;6187232;28;20786;-48
2023/11/12 07:56:34;;;;;;;2.13;1.73;;;;;;;3.08;100.00;97115.53;6191017;28;21020;-48
2023/11/12 07:59:43;;;;;;;3.10;1.73;;;;;;;3.67;100.00;97111.81;6172062;28;20703;-47
2023/11/12 08:02:47;;;;;;;2.10;1.40;;;;;;;4.17;99.47;97108.44;6189047;28;20190;-47
2023/11/12 08:05:49;;;;;;;4.17;1.30;;;;;;;4.43;98.97;97110.03;6189291;28;20192;-48
2023/11/12 08:08:52;;;;;;;2.03;1.30;;;;;;;4.44;99.32;97120.41;6170336;28;20193;-48
2023/11/12 08:11:54;;;;;;;1.50;1.30;;;;;;;4.42;99.52;97114.53;6189524;28;20205;-48
2023/11/12 08:14:57;;;;;;;1.67;1.17;;;;;;;4.45;100.00;97121.22;6191802;28;20280;-47
2023/11/12 08:17:59;;;;;;;1.00;0.83;;;;;;;4.45;100.00;97122.00;6191413;28;20190;-46
2023/11/12 08:21:02;;;;;;;2.10;1.10;;;;;;;4.50;100.00;97131.91;6192254;28;20546;-48
2023/11/12 08:24:05;;;;;;;1.37;1.10;;;;;;;4.53;100.00;97126.19;6192552;28;20229;-47
2023/11/12 08:27:07;;;;;;;1.50;1.03;;;;;;;4.61;100.00;97126.72;6191947;28;20459;-47
2023/11/12 08:30:10;;;;;;;2.43;1.10;;;;;;;4.75;98.57;97119.50;6191497;28;20230;-47
2023/11/12 08:33:13;;;;;;;2.00;1.20;;;;;;;5.09;90.41;97118.13;6192026;28;20213;-46
2023/11/12 08:36:15;;;;;;;1.30;1.07;;;;;;;5.47;91.54;97137.38;6192142;28;20198;-46
2023/11/12 08:39:18;;;;;;;2.43;0.97;;;;;;;5.51;90.68;97122.69;6190335;28;20298;-45
2023/11/12 08:42:20;;;;;;;2.60;1.13;;;;;;;5.59;86.42;97111.81;6192419;28;20192;-48
2023/11/12 08:45:23;;;;;;;1.53;1.00;;;;;;;5.97;87.18;97126.59;6191946;28;20192;-48
2023/11/12 08:48:31;;;;;;;2.10;0.80;;;;;;;6.02;85.34;97142.56;6191664;28;20203;-47
2023/11/12 08:51:34;;;;;;;1.53;0.80;;;;;;;5.84;84.73;97103.75;6190951;28;20198;-50
2023/11/12 08:54:37;;;;;;;1.60;1.10;;;;;;;6.00;85.99;97128.75;6191641;28;20203;-48
2023/11/12 08:57:41;;;;;;;1.63;0.80;;;;;;;6.23;87.93;97149.97;6192449;28;20228;-48
2023/11/12 09:00:43;;;;;;;1.10;0.70;;;;;;;6.31;85.43;97135.63;6189904;28;20531;-51
2023/11/12 09:03:45;;;;;;;0.93;0.90;;;;;;;6.39;86.72;97136.09;6186431;28;20196;-48
2023/11/12 09:06:48;;;;;;;0.80;0.73;;;;;;;6.50;83.27;97147.69;6191834;28;20203;-49
2023/11/12 09:09:50;;;;;;;1.20;0.90;;;;;;;6.56;80.43;97151.31;6191751;28;20203;-52
2023/11/12 09:12:52;;;;;;;1.50;0.90;;;;;;;6.62;84.74;97148.53;6170883;28;20196;-49
2023/11/12 09:15:55;;;;;;;1.23;0.97;;;;;;;6.61;82.96;97151.41;6189468;28;20212;-50
2023/11/12 09:19:00;;;;;;;1.10;1.00;;;;;;;6.71;82.56;97146.38;6191434;28;20308;-49
2023/11/12 09:22:03;;;;;;;2.10;0.90;;;;;;;6.90;77.06;97123.22;6190771;28;20886;-48
2023/11/12 09:25:06;;;;;;;1.77;1.03;;;;;;;7.25;74.21;97141.72;6193382;28;20221;-48
2023/11/12 09:28:13;;;;;;;1.47;0.80;;;;;;;7.48;78.13;97151.44;6178184;28;20563;-50
2023/11/12 09:31:16;;;;;;;2.00;0.93;;;;;;;7.64;67.94;97139.31;6209040;28;20919;-53
2023/11/12 09:34:20;;;;;;;1.27;0.73;;;;;;;7.60;71.94;97143.47;6217209;28;20255;-50
2023/11/12 09:37:22;;;;;;;1.20;0.80;;;;;;;7.66;70.26;97145.97;6218431;28;20572;-48
2023/11/12 09:40:29;;;;;;;1.47;0.80;;;;;;;7.72;70.85;97137.06;6220475;28;20211;-51
2023/11/12 09:43:32;;;;;;;0.53;0.53;;;;;;;7.79;69.62;97144.88;6219025;28;20322;-50
2023/11/12 09:46:35;;;;;;;0.77;0.70;;;;;;;7.73;69.48;97116.66;6219477;28;20193;-51
2023/11/12 09:49:37;;;;;;;1.50;0.60;;;;;;;7.99;69.64;97136.50;6220169;28;20189;-51
2023/11/12 09:52:39;;;;;;;1.83;0.80;;;;;;;8.00;64.59;97133.59;6218219;28;20204;-50
2023/11/12 09:55:44;;;;;;;0.63;0.50;;;;;;;8.04;66.27;97125.19;6218906;28;20223;-50
2023/11/12 09:58:46;;;;;;;0.70;0.70;;;;;;;8.28;62.12;97124.81;6218384;28;20216;-49
2023/11/12 10:01:48;;;;;;;1.37;0.70;;;;;;;8.25;62.70;97127.91;6219905;28;20264;-49
2023/11/12 10:04:58;;;;;;;0.83;0.50;;;;;;;8.31;61.52;97123.50;6218607;28;20562;-48
2023/11/12 10:08:05;;;;;;;1.27;0.60;;;;;;;8.38;60.06;97113.56;6218119;28;20193;-47
2023/11/12 10:11:18;;;;;;;1.10;0.50;;;;;;;8.19;56.50;97078.47;6219046;28;20569;-48
2023/11/12 10:14:23;;;;;;;0.53;0.30;;;;;;;8.50;62.01;97122.25;6216569;28;20655;-51
2023/11/12 10:17:26;;;;;;;1.47;0.70;;;;;;;8.59;58.88;97116.53;6217144;28;20198;-50
2023/11/12 10:20:36;;;;;;;0.87;0.50;;;;;;;8.58;53.72;97091.03;6216862;28;20205;-52
2023/11/12 10:23:38;;;;;;;1.27;0.60;;;;;;;8.61;54.21;97120.53;6213732;28;20200;-50
2023/11/12 10:26:40;;;;;;;0.60;0.40;;;;;;;8.56;54.64;97119.66;6219402;28;20196;-49
2023/11/12 10:29:44;;;;;;;1.63;0.50;;;;;;;8.73;55.14;97117.81;6218184;28;20203;-46
2023/11/12 10:32:47;;;;;;;0.57;0.40;;;;;;;8.84;53.15;97110.78;6218353;28;20583;-50
2023/11/12 10:35:49;;;;;;;0.70;0.40;;;;;;;8.98;54.38;97120.81;6218419;28;20672;-51
2023/11/12 10:38:52;;;;;;;0.50;0.50;;;;;;;8.93;50.85;97104.81;6217116;28;20632;-50
2023/11/12 10:41:58;;;;;;;1.20;0.70;;;;;;;8.61;52.64;97107.28;6215999;28;20190;-50
2023/11/12 10:45:05;;;;;;;0.50;0.50;;;;;;;8.32;53.25;97082.63;6219299;28;20194;-52
2023/11/12 10:48:31;;;;;;;0.60;0.50;;;;;;;8.48;53.95;97112.94;6218629;28;20227;-52
2023/11/12 10:51:42;;;;;;;0.83;0.67;;;;;;;8.61;54.33;97109.13;6213974;28;20210;-52
2023/11/12 10:55:04;;;;;;;1.13;0.50;;;;;;;8.72;53.21;97105.59;6213737;28;20193;-53
2023/11/12 10:58:13;;;;;;;1.23;0.50;;;;;;;8.79;52.54;97101.69;6216682;28;21229;-51
2023/11/12 11:01:18;;;;;;;0.53;0.53;;;;;;;8.93;53.38;97107.47;6216287;28;20216;-53
2023/11/12 11:04:22;;;;;;;2.03;0.70;;;;;;;9.03;51.66;97091.66;6216401;28;20199;-51
2023/11/12 11:07:24;;;;;;;1.03;0.50;;;;;;;9.04;52.13;97095.13;6219682;28;20201;-52
2023/11/12 11:10:27;;;;;;;1.53;0.40;;;;;;;9.12;53.62;97085.94;6217939;28;20574;-52
2023/11/12 11:13:29;;;;;;;1.60;0.50;;;;;;;9.16;51.70;97092.34;6216974;28;20575;-51
2023/11/12 11:16:46;;;;;;;1.73;0.60;;;;;;;9.20;51.53;97088.16;6223992;28;20208;-51
2023/11/12 11:19:49;;;;;;;1.07;0.40;;;;;;;9.23;52.23;97082.34;6217050;28;20344;-53
2023/11/12 11:22:52;;;;;;;1.67;0.87;;;;;;;9.29;51.42;97091.97;6214309;28;20195;-52
2023/11/12 11:26:26;;;;;;;0.40;0.40;;;;;;;9.26;49.35;97080.00;6213410;28;20193;-52
2023/11/12 11:29:28;;;;;;;0.30;0.30;;;;;;;9.32;49.78;97077.41;6207644;28;20272;-52
2023/11/12 11:32:31;;;;;;;0.83;0.40;;;;;;;9.45;50.10;97071.69;6215137;28;20712;-52
2023/11/12 11:35:34;;;;;;;0.50;0.33;;;;;;;9.44;47.72;97078.88;6208085;28;20215;-50
2023/11/12 11:38:36;;;;;;;0.30;0.20;;;;;;;9.41;48.22;97079.38;6216540;28;20203;-48
2023/11/12 11:41:47;;;;;;;0.37;0.30;;;;;;;9.46;48.42;97075.97;6214026;28;20187;-52
2023/11/12 11:44:50;;;;;;;1.30;0.30;;;;;;;9.55;49.55;97069.94;6214850;28;20558;-51
2023/11/12 11:48:05;;;;;;;1.07;0.30;;;;;;;9.62;50.01;97063.63;6215412;28;20234;-51
2023/11/12 11:51:37;;;;;;;0.40;0.30;;;;;;;9.66;48.59;97068.22;6208874;28;20203;-50
2023/11/12 11:54:40;;;;;;;1.10;0.30;;;;;;;9.66;49.46;97067.41;6215233;28;20339;-52
2023/11/12 11:57:47;;;;;;;1.30;0.20;;;;;;;9.68;49.43;97073.28;6216769;28;20738;-52
2023/11/12 12:00:57;;;;;;;0.30;0.20;;;;;;;9.64;49.50;97067.63;6216604;28;20204;-51
2023/11/12 12:04:06;;;;;;;0.30;0.30;;;;;;;9.63;50.92;97066.03;6208688;28;20624;-52
2023/11/12 12:07:17;;;;;;;1.17;0.50;;;;;;;9.65;50.45;97068.44;6201281;28;20204;-52
2023/11/12 12:10:26;;;;;;;1.33;0.47;;;;;;;9.63;49.12;97062.56;6215261;28;20192;-53
2023/11/12 12:13:30;;;;;;;0.40;0.20;;;;;;;9.70;50.32;97063.16;6212546;28;20695;-53
2023/11/12 12:16:33;;;;;;;0.30;0.30;;;;;;;9.77;50.17;97059.28;6215014;28;20195;-51
2023/11/12 12:19:36;;;;;;;0.50;0.30;;;;;;;9.79;50.23;97049.16;6213074;28;20214;-49
2023/11/12 12:22:39;;;;;;;0.80;0.40;;;;;;;9.54;50.12;97033.78;6216879;28;20195;-52
2023/11/12 12:25:50;;;;;;;0.57;0.40;;;;;;;9.61;51.03;97054.88;6211567;28;20598;-50
2023/11/12 12:28:52;;;;;;;1.40;0.30;;;;;;;9.42;53.90;97051.72;6206619;28;20751;-52
2023/11/12 12:31:54;;;;;;;0.87;0.30;;;;;;;9.17;55.56;97046.13;6213835;28;20232;-49
2023/11/12 12:34:57;;;;;;;0.50;0.50;;;;;;;8.90;58.38;97038.88;6212058;28;20265;-52
2023/11/12 12:38:06;;;;;;;0.33;0.30;;;;;;;8.65;60.94;97047.31;6213885;28;20559;-52
2023/11/12 12:41:09;;;;;;;0.57;0.27;;;;;;;8.49;56.43;97053.47;6213204;28;20255;-51
2023/11/12 12:44:24;;;;;;;0.73;0.33;;;;;;;8.20;60.14;97021.72;6214054;28;20282;-52
2023/11/12 12:47:35;;;;;;;0.50;0.30;;;;;;;8.23;61.42;97037.16;6212194;28;20588;-51
2023/11/12 12:50:39;;;;;;;0.53;0.40;;;;;;;8.23;61.17;97047.78;6213695;28;20191;-52
2023/11/12 12:53:45;;;;;;;0.60;0.50;;;;;;;8.12;55.29;97024.75;6211618;28;20280;-51
2023/11/12 12:56:48;;;;;;;4.83;0.70;;;;;;;8.33;59.04;97038.34;6213765;28;20590;-52
2023/11/12 12:59:51;;;;;;;0.30;0.30;;;;;;;8.23;60.85;97049.63;6214978;28;20221;-52
2023/11/12 13:02:53;;;;;;;0.40;0.40;;;;;;;8.01;61.67;97038.91;6214417;28;20278;-51
2023/11/12 13:05:56;;;;;;;0.50;0.40;;;;;;;8.08;61.35;97054.66;6215055;28;20218;-49
2023/11/12 13:08:59;;;;;;;0.50;0.50;;;;;;;8.18;56.86;97049.53;6214236;28;20735;-52
2023/11/12 13:12:03;;;;;;;1.47;1.00;;;;;;;8.21;56.58;97047.19;6212390;28;20207;-50
2023/11/12 13:15:08;;;;;;;1.17;0.40;;;;;;;8.22;59.00;97050.63;6212640;28;20221;-52
2023/11/12 13:18:11;;;;;;;1.03;0.60;;;;;;;8.14;60.18;97049.22;6216131;28;20715;-51
2023/11/12 13:21:14;;;;;;;2.20;0.40;;;;;;;8.29;57.37;97048.66;6212900;28;20278;-50
2023/11/12 13:24:18;;;;;;;0.20;0.20;;;;;;;8.14;58.95;97045.75;6210154;28;20228;-48
2023/11/12 13:27:20;;;;;;;0.50;0.40;;;;;;;8.08;59.15;97052.00;6213038;28;20655;-50
2023/11/12 13:30:22;;;;;;;0.50;0.50;;;;;;;7.88;61.08;97041.88;6211789;28;20295;-52
2023/11/12 13:33:25;;;;;;;0.43;0.40;;;;;;;7.90;63.21;97053.06;6214323;28;20189;-54
2023/11/12 13:36:27;;;;;;;1.67;0.47;;;;;;;7.63;63.81;97027.13;6213754;28;20363;-51
2023/11/12 13:39:30;;;;;;;1.03;0.67;;;;;;;7.72;62.83;97041.63;6213650;28;20213;-50
2023/11/12 13:42:35;;;;;;;0.63;0.40;;;;;;;7.76;62.80;97065.81;6213327;28;20194;-51
2023/11/12 13:45:38;;;;;;;0.67;0.67;;;;;;;7.87;58.86;97051.69;6212542;28;20192;-54
2023/11/12 13:48:42;;;;;;;1.23;0.97;;;;;;;8.02;58.61;97048.47;6195276;28;20351;-52
2023/11/12 13:51:46;;;;;;;0.50;0.40;;;;;;;8.05;56.76;97057.81;6196927;28;20200;-52
2023/11/12 13:54:49;;;;;;;5.20;0.90;;;;;;;7.90;60.02;97040.59;6208044;28;20668;-52
2023/11/12 13:57:52;;;;;;;0.60;0.50;;;;;;;7.89;60.85;97056.75;6209083;28;20205;-53
2023/11/12 14:00:55;;;;;;;0.40;0.40;;;;;;;7.75;63.34;97062.34;6213597;28;20201;-50
2023/11/12 14:03:57;;;;;;;1.60;0.40;;;;;;;7.67;63.78;97070.69;6212623;28;20765;-51
2023/11/12 14:06:59;;;;;;;0.80;0.53;;;;;;;7.47;63.35;97065.81;6211617;28;20581;-50
2023/11/12 14:10:03;;;;;;;0.67;0.57;;;;;;;7.67;60.27;97070.69;6216581;28;20324;-50
2023/11/12 14:13:05;;;;;;;0.43;0.27;;;;;;;7.74;60.68;97068.72;6217602;28;20267;-50
2023/11/12 14:16:12;;;;;;;1.13;0.57;;;;;;;7.63;63.11;97072.19;6219250;28;20211;-51
2023/11/12 14:19:14;;;;;;;0.87;0.40;;;;;;;7.48;66.71;97072.72;6215068;28;20190;-55
2023/11/12 14:22:16;;;;;;;0.53;0.50;;;;;;;7.34;66.12;97074.06;6216832;28;20197;-51
2023/11/12 14:25:18;;;;;;;0.40;0.30;;;;;;;7.17;63.89;97054.66;6216272;28;20672;-49
2023/11/12 14:28:26;;;;;;;0.30;0.30;;;;;;;7.26;64.67;97076.28;6217393;28;20585;-54
2023/11/12 14:31:29;;;;;;;0.60;0.40;;;;;;;7.11;66.87;97088.19;6229139;28;20278;-50